sensor_id;sensor_type;location;lat;lon;timestamp;pressure;altitude;pressure_sealevel;temperature;humidity
47154;BME280;32907;41.412;2.164;2023-09-19T00:02:20;100640.84;;;27.93;37.91
47154;BME280;32907;41.412;2.164;2023-09-19T00:04:49;100525.50;;;27.13;37.45
47154;BME280;32907;41.412;2.164;2023-09-19T00:07:18;100675.09;;;28.17;37.58
47154;BME280;32907;41.412;2.164;2023-09-19T00:09:46;100670.72;;;28.15;37.51
47154;BME280;32907;41.412;2.164;2023-09-19T00:12:14;100457.16;;;26.82;37.66
47154;BME280;32907;41.412;2.164;2023-09-19T00:14:43;100640.34;;;27.91;37.62
47154;BME280;32907;41.412;2.164;2023-09-19T00:17:12;100627.72;;;27.90;37.37
47154;BME280;32907;41.412;2.164;2023-09-19T00:19:40;100634.38;;;27.89;37.17
47154;BME280;32907;41.412;2.164;2023-09-19T00:22:10;100517.16;;;27.22;37.04
47154;BME280;32907;41.412;2.164;2023-09-19T00:24:41;100658.75;;;27.99;37.02
47154;BME280;32907;41.412;2.164;2023-09-19T00:27:09;100666.34;;;28.14;36.96
47154;BME280;32907;41.412;2.164;2023-09-19T00:29:38;100423.34;;;26.48;36.86
47154;BME280;32907;41.412;2.164;2023-09-19T00:32:07;100599.13;;;27.70;37.37
47154;BME280;32907;41.412;2.164;2023-09-19T00:34:36;100637.53;;;28.00;37.66
47154;BME280;32907;41.412;2.164;2023-09-19T00:37:05;100623.16;;;27.94;37.58
47154;BME280;32907;41.412;2.164;2023-09-19T00:39:33;100637.03;;;27.98;37.72
47154;BME280;32907;41.412;2.164;2023-09-19T00:42:01;100425.03;;;26.41;37.19
47154;BME280;32907;41.412;2.164;2023-09-19T00:44:32;100639.44;;;27.87;37.62
47154;BME280;32907;41.412;2.164;2023-09-19T00:47:02;100474.34;;;26.79;37.43
47154;BME280;32907;41.412;2.164;2023-09-19T00:49:32;100568.19;;;27.52;37.24
47154;BME280;32907;41.412;2.164;2023-09-19T00:52:01;100611.19;;;27.78;37.16
47154;BME280;32907;41.412;2.164;2023-09-19T00:54:29;100673.91;;;28.05;37.22
47154;BME280;32907;41.412;2.164;2023-09-19T00:56:58;100611.75;;;27.71;37.50
47154;BME280;32907;41.412;2.164;2023-09-19T00:59:27;100682.88;;;28.14;37.72
47154;BME280;32907;41.412;2.164;2023-09-19T01:01:57;100609.34;;;27.70;37.26
47154;BME280;32907;41.412;2.164;2023-09-19T01:04:30;100579.19;;;27.52;37.53
47154;BME280;32907;41.412;2.164;2023-09-19T01:07:00;100682.88;;;28.14;37.59
47154;BME280;32907;41.412;2.164;2023-09-19T01:09:28;100684.50;;;28.03;37.55
47154;BME280;32907;41.412;2.164;2023-09-19T01:12:01;100635.28;;;27.81;37.54
47154;BME280;32907;41.412;2.164;2023-09-19T01:14:42;100685.63;;;28.14;37.92
47154;BME280;32907;41.412;2.164;2023-09-19T01:17:32;100653.91;;;27.96;37.94
47154;BME280;32907;41.412;2.164;2023-09-19T01:20:22;100662.88;;;28.05;38.22
47154;BME280;32907;41.412;2.164;2023-09-19T01:23:09;100537.34;;;27.26;38.50
47154;BME280;32907;41.412;2.164;2023-09-19T01:25:56;100678.16;;;28.15;38.60
47154;BME280;32907;41.412;2.164;2023-09-19T01:28:55;100621.50;;;27.81;38.50
47154;BME280;32907;41.412;2.164;2023-09-19T01:31:33;100671.84;;;28.14;38.92
47154;BME280;32907;41.412;2.164;2023-09-19T01:34:03;100620.72;;;27.80;38.96
47154;BME280;32907;41.412;2.164;2023-09-19T01:36:36;100486.03;;;26.76;39.22
47154;BME280;32907;41.412;2.164;2023-09-19T01:39:06;100669.34;;;28.09;39.11
47154;BME280;32907;41.412;2.164;2023-09-19T01:42:06;100676.25;;;28.15;39.55
47154;BME280;32907;41.412;2.164;2023-09-19T01:47:33;100686.78;;;28.13;39.23
47154;BME280;32907;41.412;2.164;2023-09-19T01:50:17;100681.28;;;28.13;40.01
47154;BME280;32907;41.412;2.164;2023-09-19T01:52:56;100664.94;;;27.96;40.10
47154;BME280;32907;41.412;2.164;2023-09-19T01:55:26;100681.16;;;28.10;40.56
47154;BME280;32907;41.412;2.164;2023-09-19T01:58:12;100688.63;;;28.09;40.66
47154;BME280;32907;41.412;2.164;2023-09-19T02:00:44;100660.00;;;27.90;40.66
47154;BME280;32907;41.412;2.164;2023-09-19T02:03:14;100450.50;;;26.50;40.59
47154;BME280;32907;41.412;2.164;2023-09-19T02:05:51;100663.09;;;27.88;40.94
47154;BME280;32907;41.412;2.164;2023-09-19T02:08:22;100479.19;;;26.61;41.10
47154;BME280;32907;41.412;2.164;2023-09-19T02:10:53;100675.16;;;27.96;40.74
47154;BME280;32907;41.412;2.164;2023-09-19T02:13:22;100595.22;;;27.38;41.26
47154;BME280;32907;41.412;2.164;2023-09-19T02:15:56;100633.31;;;27.69;41.15
47154;BME280;32907;41.412;2.164;2023-09-19T02:18:24;100689.75;;;27.96;41.43
47154;BME280;32907;41.412;2.164;2023-09-19T02:20:54;100581.97;;;27.19;41.59
47154;BME280;32907;41.412;2.164;2023-09-19T02:23:24;100681.03;;;27.94;41.57
47154;BME280;32907;41.412;2.164;2023-09-19T02:25:54;100662.63;;;27.86;41.54
47154;BME280;32907;41.412;2.164;2023-09-19T02:28:23;100701.28;;;28.10;41.65
47154;BME280;32907;41.412;2.164;2023-09-19T02:30:51;100463.19;;;26.42;41.57
47154;BME280;32907;41.412;2.164;2023-09-19T02:33:19;100722.06;;;28.08;41.54
47154;BME280;32907;41.412;2.164;2023-09-19T02:35:55;100665.50;;;27.77;42.10
47154;BME280;32907;41.412;2.164;2023-09-19T02:38:25;100721.25;;;28.07;41.97
47154;BME280;32907;41.412;2.164;2023-09-19T02:40:55;100652.78;;;27.64;41.96
47154;BME280;32907;41.412;2.164;2023-09-19T02:43:23;100699.28;;;27.99;41.69
47154;BME280;32907;41.412;2.164;2023-09-19T02:45:52;100643.53;;;27.69;42.12
47154;BME280;32907;41.412;2.164;2023-09-19T02:48:25;100653.44;;;27.82;41.99
47154;BME280;32907;41.412;2.164;2023-09-19T02:50:53;100614.78;;;27.57;41.92
47154;BME280;32907;41.412;2.164;2023-09-19T02:53:21;100501.97;;;26.83;41.99
47154;BME280;32907;41.412;2.164;2023-09-19T02:55:50;100698.47;;;27.86;42.28
47154;BME280;32907;41.412;2.164;2023-09-19T02:58:22;100684.59;;;27.95;42.77
47154;BME280;32907;41.412;2.164;2023-09-19T03:00:51;100696.78;;;28.06;42.38
47154;BME280;32907;41.412;2.164;2023-09-19T03:03:20;100534.38;;;26.98;42.86
47154;BME280;32907;41.412;2.164;2023-09-19T03:05:48;100580.41;;;27.30;42.82
47154;BME280;32907;41.412;2.164;2023-09-19T03:08:22;100602.13;;;27.44;43.33
47154;BME280;32907;41.412;2.164;2023-09-19T03:10:51;100652.88;;;27.76;43.37
47154;BME280;32907;41.412;2.164;2023-09-19T03:13:20;100647.91;;;27.82;43.22
47154;BME280;32907;41.412;2.164;2023-09-19T03:15:48;100693.00;;;28.10;43.83
47154;BME280;32907;41.412;2.164;2023-09-19T03:18:24;100473.69;;;26.61;43.84
47154;BME280;32907;41.412;2.164;2023-09-19T03:20:58;100692.66;;;28.12;44.07
47154;BME280;32907;41.412;2.164;2023-09-19T03:23:30;100579.84;;;27.37;44.13
47154;BME280;32907;41.412;2.164;2023-09-19T03:25:58;100513.97;;;26.99;44.09
47154;BME280;32907;41.412;2.164;2023-09-19T03:28:27;100689.44;;;28.10;44.53
47154;BME280;32907;41.412;2.164;2023-09-19T03:31:00;100655.63;;;27.88;44.31
47154;BME280;32907;41.412;2.164;2023-09-19T03:33:29;100660.59;;;27.95;45.15
47154;BME280;32907;41.412;2.164;2023-09-19T03:36:01;100671.16;;;27.93;45.06
47154;BME280;32907;41.412;2.164;2023-09-19T03:38:33;100625.69;;;27.66;45.29
47154;BME280;32907;41.412;2.164;2023-09-19T03:41:02;100696.91;;;28.09;45.33
47154;BME280;32907;41.412;2.164;2023-09-19T03:43:34;100689.78;;;28.08;45.44
47154;BME280;32907;41.412;2.164;2023-09-19T03:46:03;100629.13;;;27.63;45.85
47154;BME280;32907;41.412;2.164;2023-09-19T03:48:38;100670.56;;;27.87;46.22
47154;BME280;32907;41.412;2.164;2023-09-19T03:51:06;100666.19;;;27.86;46.64
47154;BME280;32907;41.412;2.164;2023-09-19T03:53:35;100627.84;;;27.48;46.37
47154;BME280;32907;41.412;2.164;2023-09-19T03:56:03;100662.19;;;27.84;46.08
47154;BME280;32907;41.412;2.164;2023-09-19T03:58:33;100663.66;;;27.81;46.15
47154;BME280;32907;41.412;2.164;2023-09-19T04:01:06;100703.09;;;28.06;46.19
47154;BME280;32907;41.412;2.164;2023-09-19T04:03:35;100686.09;;;28.04;46.84
47154;BME280;32907;41.412;2.164;2023-09-19T04:06:14;100694.34;;;28.04;46.60
47154;BME280;32907;41.412;2.164;2023-09-19T04:08:44;100688.84;;;28.04;46.66
47154;BME280;32907;41.412;2.164;2023-09-19T04:11:12;100688.19;;;28.07;47.25
47154;BME280;32907;41.412;2.164;2023-09-19T04:13:40;100495.69;;;26.82;46.98
47154;BME280;32907;41.412;2.164;2023-09-19T04:16:10;100499.16;;;26.91;46.88
47154;BME280;32907;41.412;2.164;2023-09-19T04:18:38;100658.03;;;27.78;46.78
47154;BME280;32907;41.412;2.164;2023-09-19T04:21:08;100696.91;;;28.09;47.51
47154;BME280;32907;41.412;2.164;2023-09-19T04:23:37;100690.94;;;28.07;47.32
47154;BME280;32907;41.412;2.164;2023-09-19T04:26:05;100556.72;;;27.17;47.61
47154;BME280;32907;41.412;2.164;2023-09-19T04:28:34;100644.47;;;27.73;47.77
47154;BME280;32907;41.412;2.164;2023-09-19T04:31:06;100663.53;;;27.90;47.67
47154;BME280;32907;41.412;2.164;2023-09-19T04:33:36;100699.66;;;28.09;47.62
47154;BME280;32907;41.412;2.164;2023-09-19T04:36:05;100657.00;;;27.82;47.64
47154;BME280;32907;41.412;2.164;2023-09-19T04:38:55;100694.94;;;28.10;47.94
47154;BME280;32907;41.412;2.164;2023-09-19T04:41:23;100693.00;;;28.10;48.05
47154;BME280;32907;41.412;2.164;2023-09-19T04:43:52;100672.63;;;27.91;48.12
47154;BME280;32907;41.412;2.164;2023-09-19T04:46:20;100649.63;;;27.74;47.94
47154;BME280;32907;41.412;2.164;2023-09-19T04:48:49;100381.44;;;26.10;48.10
47154;BME280;32907;41.412;2.164;2023-09-19T04:51:18;100664.13;;;27.83;48.12
47154;BME280;32907;41.412;2.164;2023-09-19T04:53:48;100702.41;;;28.09;48.08
47154;BME280;32907;41.412;2.164;2023-09-19T04:56:17;100614.06;;;27.48;48.33
47154;BME280;32907;41.412;2.164;2023-09-19T05:02:15;100702.19;;;28.02;48.20
47154;BME280;32907;41.412;2.164;2023-09-19T05:05:41;100701.22;;;27.98;48.62
47154;BME280;32907;41.412;2.164;2023-09-19T05:08:58;100718.03;;;28.05;48.30
47154;BME280;32907;41.412;2.164;2023-09-19T05:12:08;100698.72;;;27.93;47.99
47154;BME280;32907;41.412;2.164;2023-09-19T05:15:40;100724.34;;;28.06;48.46
47154;BME280;32907;41.412;2.164;2023-09-19T05:19:11;100716.63;;;27.99;48.34
47154;BME280;32907;41.412;2.164;2023-09-19T05:22:34;100672.81;;;27.73;48.32
47154;BME280;32907;41.412;2.164;2023-09-19T05:29:35;100730.53;;;28.03;48.20
47154;BME280;32907;41.412;2.164;2023-09-19T05:37:13;100728.47;;;28.00;48.04
47154;BME280;32907;41.412;2.164;2023-09-19T05:40:32;100743.31;;;28.07;48.06
47154;BME280;32907;41.412;2.164;2023-09-19T05:44:01;100720.22;;;28.00;48.36
47154;BME280;32907;41.412;2.164;2023-09-19T05:51:40;100742.03;;;28.05;48.15
47154;BME280;32907;41.412;2.164;2023-09-19T05:55:10;100729.03;;;27.93;48.23
47154;BME280;32907;41.412;2.164;2023-09-19T05:58:56;100730.72;;;27.85;48.54
47154;BME280;32907;41.412;2.164;2023-09-19T06:03:23;100684.06;;;27.47;48.97
47154;BME280;32907;41.412;2.164;2023-09-19T06:07:07;100740.47;;;27.83;49.21
47154;BME280;32907;41.412;2.164;2023-09-19T06:14:36;100753.84;;;27.93;48.85
47154;BME280;32907;41.412;2.164;2023-09-19T06:18:15;100672.59;;;27.45;48.49
47154;BME280;32907;41.412;2.164;2023-09-19T06:22:06;100751.75;;;27.90;48.79
47154;BME280;32907;41.412;2.164;2023-09-19T06:25:30;100741.53;;;27.91;48.85
47154;BME280;32907;41.412;2.164;2023-09-19T06:28:16;100625.88;;;27.16;48.96
47154;BME280;32907;41.412;2.164;2023-09-19T06:31:40;100745.78;;;27.88;48.71
47154;BME280;32907;41.412;2.164;2023-09-19T06:34:53;100739.19;;;27.80;49.02
47154;BME280;32907;41.412;2.164;2023-09-19T06:38:36;100738.53;;;27.83;48.53
47154;BME280;32907;41.412;2.164;2023-09-19T06:42:05;100690.25;;;27.44;48.97
47154;BME280;32907;41.412;2.164;2023-09-19T06:45:01;100752.44;;;27.87;48.67
47154;BME280;32907;41.412;2.164;2023-09-19T06:48:27;100750.47;;;27.87;48.56
47154;BME280;32907;41.412;2.164;2023-09-19T06:51:44;100736.97;;;27.74;48.44
47154;BME280;32907;41.412;2.164;2023-09-19T06:55:19;100754.94;;;27.80;48.53
47154;BME280;32907;41.412;2.164;2023-09-19T06:58:33;100739.63;;;27.70;49.10
47154;BME280;32907;41.412;2.164;2023-09-19T07:01:41;100698.19;;;27.46;49.14
47154;BME280;32907;41.412;2.164;2023-09-19T07:05:05;100735.38;;;27.73;48.54
47154;BME280;32907;41.412;2.164;2023-09-19T07:08:26;100738.81;;;27.70;48.87
47154;BME280;32907;41.412;2.164;2023-09-19T07:11:22;100742.75;;;27.81;48.57
47154;BME280;32907;41.412;2.164;2023-09-19T07:14:26;100747.81;;;27.79;49.09
47154;BME280;32907;41.412;2.164;2023-09-19T07:18:00;100747.81;;;27.79;49.14
47154;BME280;32907;41.412;2.164;2023-09-19T07:21:27;100742.72;;;27.69;49.01
47154;BME280;32907;41.412;2.164;2023-09-19T07:24:44;100752.38;;;27.75;48.38
47154;BME280;32907;41.412;2.164;2023-09-19T07:28:20;100662.81;;;27.15;48.96
47154;BME280;32907;41.412;2.164;2023-09-19T07:31:33;100769.75;;;27.75;48.40
47154;BME280;32907;41.412;2.164;2023-09-19T07:35:14;100772.50;;;27.75;48.31
47154;BME280;32907;41.412;2.164;2023-09-19T07:38:33;100771.81;;;27.78;48.36
47154;BME280;32907;41.412;2.164;2023-09-19T07:41:56;100769.41;;;27.77;48.09
47154;BME280;32907;41.412;2.164;2023-09-19T07:45:02;100733.56;;;27.56;48.00
47154;BME280;32907;41.412;2.164;2023-09-19T07:48:27;100786.38;;;27.79;47.63
47154;BME280;32907;41.412;2.164;2023-09-19T07:51:48;100788.00;;;27.80;47.78
47154;BME280;32907;41.412;2.164;2023-09-19T07:55:50;100766.28;;;27.57;47.36
47154;BME280;32907;41.412;2.164;2023-09-19T07:58:23;100557.75;;;26.20;47.07
47154;BME280;32907;41.412;2.164;2023-09-19T08:00:52;100789.72;;;27.64;47.18
47154;BME280;32907;41.412;2.164;2023-09-19T08:03:24;100680.34;;;27.01;47.42
47154;BME280;32907;41.412;2.164;2023-09-19T08:05:52;100804.72;;;27.75;47.27
47154;BME280;32907;41.412;2.164;2023-09-19T08:08:21;100806.81;;;27.78;47.38
47154;BME280;32907;41.412;2.164;2023-09-19T08:10:54;100654.28;;;26.78;47.10
47154;BME280;32907;41.412;2.164;2023-09-19T08:13:26;100797.94;;;27.72;47.36
47154;BME280;32907;41.412;2.164;2023-09-19T08:15:55;100777.91;;;27.63;47.24
47154;BME280;32907;41.412;2.164;2023-09-19T08:18:24;100565.66;;;26.22;46.83
47154;BME280;32907;41.412;2.164;2023-09-19T08:20:54;100690.75;;;27.04;47.31
47154;BME280;32907;41.412;2.164;2023-09-19T08:23:23;100827.03;;;27.82;47.22
47154;BME280;32907;41.412;2.164;2023-09-19T08:25:56;100673.25;;;26.80;47.73
47154;BME280;32907;41.412;2.164;2023-09-19T08:28:29;100830.28;;;27.84;47.48
47154;BME280;32907;41.412;2.164;2023-09-19T08:31:04;100831.28;;;27.79;47.83
47154;BME280;32907;41.412;2.164;2023-09-19T08:37:13;100839.09;;;27.77;47.60
47154;BME280;32907;41.412;2.164;2023-09-19T08:40:37;100842.19;;;27.76;47.82
47154;BME280;32907;41.412;2.164;2023-09-19T08:44:17;100844.38;;;27.82;47.92
47154;BME280;32907;41.412;2.164;2023-09-19T08:48:20;100835.03;;;27.75;48.18
47154;BME280;32907;41.412;2.164;2023-09-19T08:51:45;100864.75;;;27.90;47.94
47154;BME280;32907;41.412;2.164;2023-09-19T08:55:04;100833.13;;;27.75;47.65
47154;BME280;32907;41.412;2.164;2023-09-19T08:58:18;100847.94;;;27.83;48.12
47154;BME280;32907;41.412;2.164;2023-09-19T09:01:53;100855.59;;;27.98;48.31
47154;BME280;32907;41.412;2.164;2023-09-19T09:05:14;100772.06;;;27.44;48.37
47154;BME280;32907;41.412;2.164;2023-09-19T09:07:44;100472.13;;;25.51;48.49
47154;BME280;32907;41.412;2.164;2023-09-19T09:10:16;100803.69;;;27.58;48.55
47154;BME280;32907;41.412;2.164;2023-09-19T09:12:45;100794.97;;;27.56;48.36
47154;BME280;32907;41.412;2.164;2023-09-19T09:15:14;100634.75;;;26.50;48.43
47154;BME280;32907;41.412;2.164;2023-09-19T09:17:47;100738.56;;;27.21;48.24
47154;BME280;32907;41.412;2.164;2023-09-19T09:20:17;100872.06;;;28.07;49.25
47154;BME280;32907;41.412;2.164;2023-09-19T09:22:54;100790.03;;;27.71;48.87
47154;BME280;32907;41.412;2.164;2023-09-19T09:25:23;100788.41;;;27.70;48.53
47154;BME280;32907;41.412;2.164;2023-09-19T09:28:11;100855.66;;;28.10;48.48
47154;BME280;32907;41.412;2.164;2023-09-19T09:30:40;100667.72;;;27.00;48.49
47154;BME280;32907;41.412;2.164;2023-09-19T09:33:10;100844.28;;;28.12;48.27
47154;BME280;32907;41.412;2.164;2023-09-19T09:35:56;100847.19;;;28.15;48.60
47154;BME280;32907;41.412;2.164;2023-09-19T09:38:26;100844.44;;;28.15;47.87
47154;BME280;32907;41.412;2.164;2023-09-19T09:41:05;100839.22;;;28.14;47.79
47154;BME280;32907;41.412;2.164;2023-09-19T09:43:37;100682.25;;;27.10;47.59
47154;BME280;32907;41.412;2.164;2023-09-19T09:46:19;100846.03;;;28.17;46.96
47154;BME280;32907;41.412;2.164;2023-09-19T09:49:30;100846.34;;;28.15;47.50
47154;BME280;32907;41.412;2.164;2023-09-19T09:57:16;100828.19;;;28.02;47.44
47154;BME280;32907;41.412;2.164;2023-09-19T10:00:32;100852.56;;;28.12;47.38
47154;BME280;32907;41.412;2.164;2023-09-19T10:04:35;100845.63;;;28.06;47.09
47154;BME280;32907;41.412;2.164;2023-09-19T10:08:15;100859.41;;;28.06;46.62
47154;BME280;32907;41.412;2.164;2023-09-19T10:11:43;100856.81;;;28.09;46.99
47154;BME280;32907;41.412;2.164;2023-09-19T10:15:22;100842.31;;;28.00;46.52
47154;BME280;32907;41.412;2.164;2023-09-19T10:18:30;100824.81;;;27.96;46.05
47154;BME280;32907;41.412;2.164;2023-09-19T10:21:04;100727.38;;;27.17;45.72
47154;BME280;32907;41.412;2.164;2023-09-19T10:23:34;100856.91;;;28.13;45.79
47154;BME280;32907;41.412;2.164;2023-09-19T10:26:06;100795.81;;;27.78;46.07
47154;BME280;32907;41.412;2.164;2023-09-19T10:28:35;100734.63;;;27.43;45.93
47154;BME280;32907;41.412;2.164;2023-09-19T10:31:07;100789.13;;;27.79;45.99
47154;BME280;32907;41.412;2.164;2023-09-19T10:33:38;100822.50;;;27.98;45.77
47154;BME280;32907;41.412;2.164;2023-09-19T10:36:10;100786.59;;;27.74;46.36
47154;BME280;32907;41.412;2.164;2023-09-19T10:38:43;100817.41;;;28.09;46.83
47154;BME280;32907;41.412;2.164;2023-09-19T10:41:16;100677.25;;;27.12;48.32
47154;BME280;32907;41.412;2.164;2023-09-19T10:43:52;100806.22;;;27.93;48.09
47154;BME280;32907;41.412;2.164;2023-09-19T10:46:22;100833.16;;;28.08;48.16
47154;BME280;32907;41.412;2.164;2023-09-19T10:48:52;100643.03;;;26.92;48.07
47154;BME280;32907;41.412;2.164;2023-09-19T10:51:24;100789.50;;;27.77;48.20
47154;BME280;32907;41.412;2.164;2023-09-19T10:54:06;100834.06;;;28.12;48.06
47154;BME280;32907;41.412;2.164;2023-09-19T11:00:59;100779.88;;;27.83;47.90
47154;BME280;32907;41.412;2.164;2023-09-19T11:04:24;100758.91;;;27.70;47.35
47154;BME280;32907;41.412;2.164;2023-09-19T11:08:07;100819.94;;;28.14;46.63
47154;BME280;32907;41.412;2.164;2023-09-19T11:11:46;100787.16;;;28.00;47.09
47154;BME280;32907;41.412;2.164;2023-09-19T11:14:55;100815.72;;;28.17;46.83
47154;BME280;32907;41.412;2.164;2023-09-19T11:22:02;100790.38;;;28.02;46.67
47154;BME280;32907;41.412;2.164;2023-09-19T11:29:28;100812.25;;;28.20;46.31
47154;BME280;32907;41.412;2.164;2023-09-19T11:40:23;100789.44;;;27.98;46.11
47154;BME280;32907;41.412;2.164;2023-09-19T11:43:44;100816.03;;;28.15;46.56
47154;BME280;32907;41.412;2.164;2023-09-19T11:46:32;100706.28;;;27.42;46.50
47154;BME280;32907;41.412;2.164;2023-09-19T11:50:16;100730.47;;;27.57;46.13
47154;BME280;32907;41.412;2.164;2023-09-19T11:53:14;100791.13;;;27.91;46.50
47154;BME280;32907;41.412;2.164;2023-09-19T11:56:31;100805.31;;;28.01;46.01
47154;BME280;32907;41.412;2.164;2023-09-19T12:03:25;100823.72;;;28.09;47.25
47154;BME280;32907;41.412;2.164;2023-09-19T12:06:36;100844.63;;;28.10;47.24
47154;BME280;32907;41.412;2.164;2023-09-19T12:14:36;100817.75;;;28.07;46.68
47154;BME280;32907;41.412;2.164;2023-09-19T12:17:49;100793.88;;;27.91;47.00
47154;BME280;32907;41.412;2.164;2023-09-19T12:21:03;100781.34;;;27.81;46.93
47154;BME280;32907;41.412;2.164;2023-09-19T12:24:38;100696.91;;;27.22;46.68
47154;BME280;32907;41.412;2.164;2023-09-19T12:27:29;100780.19;;;27.82;46.80
47154;BME280;32907;41.412;2.164;2023-09-19T12:31:09;100692.63;;;27.13;46.59
47154;BME280;32907;41.412;2.164;2023-09-19T12:34:49;100764.34;;;27.79;46.68
47154;BME280;32907;41.412;2.164;2023-09-19T12:38:02;100773.16;;;27.72;46.66
47154;BME280;32907;41.412;2.164;2023-09-19T12:41:23;100777.56;;;27.85;46.52
47154;BME280;32907;41.412;2.164;2023-09-19T12:44:48;100734.22;;;27.74;46.60
47154;BME280;32907;41.412;2.164;2023-09-19T12:48:27;100749.97;;;27.73;46.71
47154;BME280;32907;41.412;2.164;2023-09-19T12:52:01;100747.53;;;27.72;46.73
47154;BME280;32907;41.412;2.164;2023-09-19T12:55:27;100800.59;;;28.02;47.05
47154;BME280;32907;41.412;2.164;2023-09-19T12:59:00;100720.56;;;27.44;46.62
47154;BME280;32907;41.412;2.164;2023-09-19T13:02:09;100724.59;;;27.59;46.50
47154;BME280;32907;41.412;2.164;2023-09-19T13:05:54;100783.94;;;27.98;46.63
47154;BME280;32907;41.412;2.164;2023-09-19T13:09:11;100790.94;;;27.96;47.02
47154;BME280;32907;41.412;2.164;2023-09-19T13:12:52;100779.09;;;27.95;46.72
47154;BME280;32907;41.412;2.164;2023-09-19T13:16:08;100764.88;;;27.93;46.77
47154;BME280;32907;41.412;2.164;2023-09-19T13:19:39;100766.66;;;27.89;47.17
47154;BME280;32907;41.412;2.164;2023-09-19T13:23:29;100728.84;;;27.56;47.42
47154;BME280;32907;41.412;2.164;2023-09-19T13:26:43;100748.50;;;27.76;47.01
47154;BME280;32907;41.412;2.164;2023-09-19T13:30:07;100764.16;;;27.84;47.14
47154;BME280;32907;41.412;2.164;2023-09-19T13:33:11;100722.81;;;27.63;46.87
47154;BME280;32907;41.412;2.164;2023-09-19T13:35:42;100737.84;;;27.66;47.27
47154;BME280;32907;41.412;2.164;2023-09-19T13:38:10;100764.34;;;27.79;46.63
47154;BME280;32907;41.412;2.164;2023-09-19T13:40:40;100757.06;;;27.74;47.27
47154;BME280;32907;41.412;2.164;2023-09-19T13:43:11;100752.38;;;27.75;47.38
47154;BME280;32907;41.412;2.164;2023-09-19T13:45:41;100718.53;;;27.53;47.03
47154;BME280;32907;41.412;2.164;2023-09-19T13:48:12;100715.09;;;27.56;47.19
47154;BME280;32907;41.412;2.164;2023-09-19T13:50:41;100744.44;;;27.73;47.23
47154;BME280;32907;41.412;2.164;2023-09-19T13:53:11;100738.94;;;27.73;47.67
47154;BME280;32907;41.412;2.164;2023-09-19T13:55:39;100707.97;;;27.55;47.47
47154;BME280;32907;41.412;2.164;2023-09-19T13:58:09;100677.56;;;27.31;47.79
47154;BME280;32907;41.412;2.164;2023-09-19T14:00:39;100657.94;;;27.32;47.80
47154;BME280;32907;41.412;2.164;2023-09-19T14:03:07;100527.97;;;26.52;47.88
47154;BME280;32907;41.412;2.164;2023-09-19T14:05:37;100463.47;;;26.20;48.10
47154;BME280;32907;41.412;2.164;2023-09-19T14:08:05;100484.41;;;26.33;48.10
47154;BME280;32907;41.412;2.164;2023-09-19T14:10:35;100598.59;;;27.02;48.53
47154;BME280;32907;41.412;2.164;2023-09-19T14:13:04;100624.91;;;27.32;48.78
47154;BME280;32907;41.412;2.164;2023-09-19T14:15:32;100695.25;;;27.84;48.26
47154;BME280;32907;41.412;2.164;2023-09-19T14:18:06;100525.34;;;26.76;48.60
47154;BME280;32907;41.412;2.164;2023-09-19T14:20:38;100634.28;;;27.52;48.66
47154;BME280;32907;41.412;2.164;2023-09-19T14:23:07;100634.06;;;27.57;48.14
47154;BME280;32907;41.412;2.164;2023-09-19T14:25:36;100640.31;;;27.67;48.66
47154;BME280;32907;41.412;2.164;2023-09-19T14:28:06;100592.41;;;27.26;48.69
47154;BME280;32907;41.412;2.164;2023-09-19T14:30:36;100659.28;;;27.68;48.66
47154;BME280;32907;41.412;2.164;2023-09-19T14:33:05;100615.13;;;27.23;48.58
47154;BME280;32907;41.412;2.164;2023-09-19T14:35:36;100579.13;;;26.86;48.83
47154;BME280;32907;41.412;2.164;2023-09-19T14:38:06;100594.19;;;27.10;48.68
47154;BME280;32907;41.412;2.164;2023-09-19T14:40:35;100672.50;;;27.54;48.91
47154;BME280;32907;41.412;2.164;2023-09-19T14:43:05;100535.28;;;26.69;48.73
47154;BME280;32907;41.412;2.164;2023-09-19T14:45:36;100642.06;;;27.50;49.15
47154;BME280;32907;41.412;2.164;2023-09-19T14:48:06;100661.41;;;27.63;48.92
47154;BME280;32907;41.412;2.164;2023-09-19T14:50:39;100622.31;;;27.36;49.22
47154;BME280;32907;41.412;2.164;2023-09-19T14:53:07;100692.09;;;27.73;49.27
47154;BME280;32907;41.412;2.164;2023-09-19T14:55:39;100661.59;;;27.57;49.25
47154;BME280;32907;41.412;2.164;2023-09-19T14:58:09;100580.66;;;27.04;49.57
47154;BME280;32907;41.412;2.164;2023-09-19T15:00:37;100496.03;;;26.60;49.32
47154;BME280;32907;41.412;2.164;2023-09-19T15:03:07;100470.75;;;26.45;49.19
47154;BME280;32907;41.412;2.164;2023-09-19T15:05:35;100622.06;;;27.41;49.26
47154;BME280;32907;41.412;2.164;2023-09-19T15:08:04;100614.16;;;27.40;48.70
47154;BME280;32907;41.412;2.164;2023-09-19T15:10:34;100637.16;;;27.56;48.99
47154;BME280;32907;41.412;2.164;2023-09-19T15:13:03;100637.59;;;27.58;48.67
47154;BME280;32907;41.412;2.164;2023-09-19T15:15:32;100640.72;;;27.56;48.38
47154;BME280;32907;41.412;2.164;2023-09-19T15:18:01;100498.38;;;26.70;48.47
47154;BME280;32907;41.412;2.164;2023-09-19T15:20:29;100633.44;;;27.40;48.60
47154;BME280;32907;41.412;2.164;2023-09-19T15:22:58;100609.00;;;27.38;48.34
47154;BME280;32907;41.412;2.164;2023-09-19T15:25:28;100645.31;;;27.65;49.04
47154;BME280;32907;41.412;2.164;2023-09-19T15:27:56;100500.47;;;26.73;48.93
47154;BME280;32907;41.412;2.164;2023-09-19T15:30:26;100670.53;;;27.75;48.72
47154;BME280;32907;41.412;2.164;2023-09-19T15:32:54;100451.25;;;26.38;49.15
47154;BME280;32907;41.412;2.164;2023-09-19T15:35:24;100550.28;;;26.92;48.94
47154;BME280;32907;41.412;2.164;2023-09-19T15:37:52;100683.50;;;27.75;49.00
47154;BME280;32907;41.412;2.164;2023-09-19T15:40:23;100694.31;;;27.80;48.63